createdAt,value
2022-10-19T00:04:37.619Z,100494.46
2022-10-19T00:09:45.114Z,100497.77
2022-10-19T00:14:49.073Z,100492.86
2022-10-19T00:19:56.043Z,100493.69
2022-10-19T00:25:00.106Z,100496.48
2022-10-19T00:30:05.132Z,100493.49
2022-10-19T00:35:09.877Z,100490.30
2022-10-19T00:40:14.179Z,100486.95
2022-10-19T00:45:18.306Z,100489.98
2022-10-19T00:50:21.877Z,100486.09
2022-10-19T00:55:27.200Z,100474.21
2022-10-19T01:00:31.615Z,100480.42
2022-10-19T01:05:36.035Z,100474.17
2022-10-19T01:10:51.938Z,100466.80
2022-10-19T01:16:11.574Z,100462.07
2022-10-19T01:21:33.156Z,100455.66
2022-10-19T01:26:59.557Z,100454.34
2022-10-19T01:32:11.410Z,100439.91
2022-10-19T01:37:25.658Z,100446.41
2022-10-19T01:42:39.805Z,100452.52
2022-10-19T01:48:10.868Z,100448.10
2022-10-19T01:53:18.588Z,100449.63
2022-10-19T01:58:28.486Z,100447.31
2022-10-19T02:03:34.861Z,100446.19
2022-10-19T02:08:45.742Z,100448.84
2022-10-19T02:13:57.445Z,100443.25
2022-10-19T02:19:03.644Z,100440.96
2022-10-19T02:24:08.708Z,100435.84
2022-10-19T02:29:14.968Z,100436.20
2022-10-19T02:34:19.637Z,100433.65
2022-10-19T02:39:24.806Z,100421.20
2022-10-19T02:44:38.488Z,100418.43
2022-10-19T02:49:44.149Z,100418.40
2022-10-19T02:54:49.050Z,100420.32
2022-10-19T02:59:53.187Z,100409.94
2022-10-19T03:04:56.755Z,100411.02
2022-10-19T03:10:01.548Z,100407.57
2022-10-19T03:15:06.333Z,100410.00
2022-10-19T03:20:12.141Z,100405.77
2022-10-19T03:25:16.799Z,100404.08
2022-10-19T03:30:20.247Z,100398.14
2022-10-19T03:35:25.064Z,100398.77
2022-10-19T03:40:29.336Z,100396.16
2022-10-19T03:45:33.126Z,100396.98
2022-10-19T03:50:36.864Z,100389.68
2022-10-19T03:55:41.431Z,100388.23
2022-10-19T04:00:45.915Z,100387.92
2022-10-19T04:05:49.303Z,100390.02
2022-10-19T04:10:53.733Z,100387.80
2022-10-19T04:15:58.208Z,100391.84
2022-10-19T04:21:05.514Z,100394.76
2022-10-19T04:26:10.644Z,100393.02
2022-10-19T04:31:14.815Z,100380.30
2022-10-19T04:36:18.239Z,100381.22
2022-10-19T04:41:22.770Z,100370.71
2022-10-19T04:46:27.403Z,100373.02
2022-10-19T04:51:31.003Z,100372.04
2022-10-19T04:56:35.027Z,100373.59
2022-10-19T05:01:40.409Z,100370.23
2022-10-19T05:06:45.833Z,100364.15
2022-10-19T05:11:53.374Z,100361.23
2022-10-19T05:17:01.586Z,100360.70
2022-10-19T05:22:06.399Z,100362.43
2022-10-19T05:27:10.336Z,100362.02
2022-10-19T05:32:13.802Z,100366.87
2022-10-19T05:37:18.161Z,100359.87
2022-10-19T05:42:22.239Z,100353.80
2022-10-19T05:47:30.189Z,100356.37
2022-10-19T05:52:35.963Z,100358.65
2022-10-19T05:57:39.833Z,100367.39
2022-10-19T06:02:43.635Z,100374.86
2022-10-19T06:07:47.089Z,100369.17
2022-10-19T06:12:50.520Z,100373.80
2022-10-19T06:17:55.269Z,100380.33
2022-10-19T06:23:01.356Z,100381.91
2022-10-19T06:28:06.247Z,100376.27
2022-10-19T06:33:10.487Z,100381.29
2022-10-19T06:38:15.318Z,100388.60
2022-10-19T06:43:19.815Z,100387.11
2022-10-19T06:48:25.065Z,100386.33
2022-10-19T06:53:30.156Z,100385.09
2022-10-19T06:58:41.368Z,100386.73
2022-10-19T07:03:46.513Z,100392.38
2022-10-19T07:08:50.317Z,100401.35
2022-10-19T07:13:54.884Z,100405.42
2022-10-19T07:19:01.690Z,100413.17
2022-10-19T07:24:06.368Z,100423.98
2022-10-19T07:29:10.209Z,100426.29
2022-10-19T07:34:15.324Z,100421.39
2022-10-19T07:39:19.869Z,100431.56
2022-10-19T07:44:24.931Z,100426.30
2022-10-19T07:49:29.733Z,100420.74
2022-10-19T07:54:34.709Z,100426.42
2022-10-19T07:59:39.209Z,100427.98
2022-10-19T08:05:03.959Z,100431.30
2022-10-19T08:10:09.959Z,100425.17
2022-10-19T08:15:13.956Z,100425.28
2022-10-19T08:20:17.874Z,100424.67
2022-10-19T08:25:22.903Z,100422.86
2022-10-19T08:30:27.850Z,100426.65
2022-10-19T08:35:31.883Z,100423.88
2022-10-19T08:40:35.913Z,100423.89
2022-10-19T08:50:47.841Z,100438.45
2022-10-19T08:56:49.463Z,100432.98
2022-10-19T09:02:11.746Z,100433.34
2022-10-19T09:07:32.211Z,100439.20
2022-10-19T09:12:50.616Z,100440.77
2022-10-19T09:17:57.774Z,100447.04
2022-10-19T09:23:13.516Z,100451.08
2022-10-19T09:28:42.971Z,100459.29
2022-10-19T09:33:56.381Z,100463.31
2022-10-19T09:39:00.870Z,100465.52
2022-10-19T09:44:05.859Z,100464.63
2022-10-19T09:49:10.786Z,100472.09
2022-10-19T09:54:34.802Z,100471.73
2022-10-19T09:59:39.660Z,100469.56
2022-10-19T10:04:48.492Z,100478.11
2022-10-19T10:09:53.766Z,100478.70
2022-10-19T10:14:58.566Z,100480.37
2022-10-19T10:20:06.654Z,100487.84
2022-10-19T10:25:19.613Z,100484.04
2022-10-19T10:30:24.696Z,100487.70
2022-10-19T10:35:38.007Z,100485.77
2022-10-19T10:40:50.532Z,100490.23
2022-10-19T10:45:55.373Z,100487.02
2022-10-19T10:51:01.234Z,100480.95
2022-10-19T10:56:19.640Z,100480.52
2022-10-19T11:01:28.267Z,100477.16
2022-10-19T11:06:34.674Z,100481.14
2022-10-19T11:11:43.599Z,100481.85
2022-10-19T11:16:51.710Z,100486.92
2022-10-19T11:22:20.335Z,100480.27
2022-10-19T11:27:48.669Z,100481.55
2022-10-19T11:33:05.537Z,100492.29
2022-10-19T11:38:29.917Z,100490.23
2022-10-19T11:43:42.429Z,100494.80
2022-10-19T11:49:13.418Z,100490.08
2022-10-19T11:54:46.262Z,100488.20
2022-10-19T12:00:15.395Z,100491.08
2022-10-19T12:06:05.719Z,100490.09
2022-10-19T12:11:36.586Z,100494.77
2022-10-19T12:16:50.992Z,100488.08
2022-10-19T12:21:59.862Z,100485.82
2022-10-19T12:27:05.532Z,100482.39
2022-10-19T12:32:15.962Z,100477.69
2022-10-19T12:37:26.533Z,100475.84
2022-10-19T12:42:38.037Z,100470.20
2022-10-19T12:48:13.663Z,100470.73
2022-10-19T12:58:38.055Z,100467.45
2022-10-19T13:03:46.000Z,100475.33
2022-10-19T13:09:04.284Z,100475.52
2022-10-19T13:14:20.310Z,100479.30
2022-10-19T13:19:25.247Z,100482.84
2022-10-19T13:24:34.147Z,100495.23
2022-10-19T13:29:42.554Z,100497.54
2022-10-19T13:34:48.012Z,100506.48
2022-10-19T13:39:52.156Z,100512.41
2022-10-19T13:44:56.946Z,100517.58
2022-10-19T13:50:17.836Z,100524.20
2022-10-19T13:55:28.471Z,100531.85
2022-10-19T14:00:58.585Z,100531.86
2022-10-19T14:06:29.019Z,100536.37
2022-10-19T14:11:36.855Z,100527.41
2022-10-19T14:16:50.303Z,100532.45
2022-10-19T14:22:33.613Z,100532.17
2022-10-19T14:27:37.314Z,100530.38
2022-10-19T14:37:49.616Z,100536.66
2022-10-19T14:42:53.176Z,100540.02
2022-10-19T14:48:03.558Z,100538.02
2022-10-19T14:53:09.702Z,100541.45
2022-10-19T14:58:18.591Z,100545.13
2022-10-19T15:03:27.479Z,100552.72
2022-10-19T15:08:37.690Z,100551.27
2022-10-19T15:13:42.828Z,100555.48
2022-10-19T15:18:50.108Z,100570.55
2022-10-19T15:23:54.884Z,100570.61
2022-10-19T15:29:09.976Z,100574.64
2022-10-19T15:34:26.374Z,100576.20
2022-10-19T15:39:42.117Z,100579.19
2022-10-19T15:44:48.451Z,100586.30
2022-10-19T15:50:02.836Z,100585.66
2022-10-19T15:55:06.613Z,100595.35
2022-10-19T16:00:17.015Z,100600.25
2022-10-19T16:05:22.032Z,100607.69
2022-10-19T16:10:27.860Z,100615.92
2022-10-19T16:15:31.109Z,100631.44
2022-10-19T16:20:38.176Z,100640.77
2022-10-19T16:25:41.820Z,100651.85
2022-10-19T16:30:51.653Z,100660.02
2022-10-19T16:35:54.887Z,100668.60
2022-10-19T16:41:09.775Z,100676.83
2022-10-19T16:46:13.597Z,100684.06
2022-10-19T16:51:34.353Z,100682.21
2022-10-19T16:56:45.222Z,100690.52
2022-10-19T17:01:49.068Z,100691.85
2022-10-19T17:06:53.891Z,100698.42
2022-10-19T17:11:59.027Z,100710.02
2022-10-19T17:17:03.909Z,100711.45
2022-10-19T17:22:07.989Z,100718.59
2022-10-19T17:27:11.677Z,100721.19
2022-10-19T17:32:20.684Z,100728.84
2022-10-19T17:37:30.329Z,100739.02
2022-10-19T17:42:37.117Z,100740.59
2022-10-19T17:47:41.694Z,100745.08
2022-10-19T17:52:49.768Z,100749.35
2022-10-19T17:57:54.414Z,100749.24
2022-10-19T18:02:58.183Z,100755.55
2022-10-19T18:08:03.335Z,100761.47
2022-10-19T18:13:09.838Z,100765.94
2022-10-19T18:18:13.492Z,100771.98
2022-10-19T18:23:20.820Z,100778.11
2022-10-19T18:28:24.928Z,100781.74
2022-10-19T18:33:32.416Z,100784.42
2022-10-19T18:38:39.261Z,100791.44
2022-10-19T18:43:54.855Z,100798.20
2022-10-19T18:49:01.052Z,100802.91
2022-10-19T18:54:05.762Z,100805.80
2022-10-19T18:59:09.701Z,100821.69
2022-10-19T19:04:13.412Z,100820.08
2022-10-19T19:09:17.698Z,100825.65
2022-10-19T19:14:24.550Z,100832.52
2022-10-19T19:19:29.713Z,100836.49
2022-10-19T19:24:33.383Z,100840.71
2022-10-19T19:29:37.249Z,100846.98
2022-10-19T19:34:41.186Z,100852.58
2022-10-19T19:39:45.640Z,100858.04
2022-10-19T19:44:50.224Z,100857.33
2022-10-19T19:49:54.031Z,100854.05
2022-10-19T19:54:58.437Z,100858.66
2022-10-19T20:00:02.693Z,100867.04
2022-10-19T20:05:08.431Z,100870.29
2022-10-19T20:10:11.955Z,100873.91
2022-10-19T20:15:18.511Z,100880.06
2022-10-19T20:20:23.361Z,100879.35
2022-10-19T20:25:27.822Z,100889.11
2022-10-19T20:30:31.460Z,100887.50
2022-10-19T20:35:38.161Z,100892.89
2022-10-19T20:40:42.495Z,100897.52
2022-10-19T20:45:47.119Z,100897.67
2022-10-19T20:50:51.692Z,100903.86
2022-10-19T20:55:55.300Z,100910.71
2022-10-19T21:01:05.355Z,100906.98
2022-10-19T21:06:09.775Z,100912.29
2022-10-19T21:11:20.993Z,100915.96
2022-10-19T21:16:30.654Z,100910.43
2022-10-19T21:21:36.856Z,100912.73
2022-10-19T21:26:40.559Z,100908.16
2022-10-19T21:31:48.767Z,100909.32
2022-10-19T21:36:53.573Z,100915.81
2022-10-19T21:41:57.809Z,100914.14
2022-10-19T21:47:01.665Z,100918.48
2022-10-19T21:52:05.268Z,100914.86
2022-10-19T21:57:09.009Z,100912.62
2022-10-19T22:02:12.347Z,100917.80
2022-10-19T22:07:18.693Z,100923.45
2022-10-19T22:12:25.832Z,100927.02
2022-10-19T22:17:30.341Z,100925.12
2022-10-19T22:22:34.634Z,100929.77
2022-10-19T22:27:38.882Z,100933.81
2022-10-19T22:32:42.081Z,100931.71
2022-10-19T22:37:45.287Z,100942.98
2022-10-19T22:42:49.075Z,100946.73
2022-10-19T22:47:54.216Z,100945.41
2022-10-19T22:52:58.732Z,100943.32
2022-10-19T22:58:03.137Z,100942.12
2022-10-19T23:03:07.245Z,100945.23
2022-10-19T23:08:10.401Z,100951.04
2022-10-19T23:13:16.014Z,100951.02
2022-10-19T23:18:20.369Z,100955.10
2022-10-19T23:23:24.803Z,100951.98
2022-10-19T23:28:30.642Z,100961.19
2022-10-19T23:33:35.575Z,100967.42
2022-10-19T23:38:40.240Z,100969.20
2022-10-19T23:43:44.618Z,100973.09
2022-10-19T23:48:48.979Z,100975.08
2022-10-19T23:53:53.911Z,100976.50
2022-10-19T23:58:58.410Z,100979.36
